LNI1793 WAAA-WARR
Flight info
| Callsign | LNI1793 |
|---|---|
| Flight time | 1h 19m |
| Altitude | 34000 |
| Route | ENDOG W32 SUSIL W32N KOLTA |
| Aircraft | B739/M-SDE2E3FGHIRWXY/LB1 |
Departure
| Time | 2026-05-08 10:12 |
|---|---|
| Airport | Sultan Hasanuddin International Airport (WAAA) |
Arrival
| Time | 2026-05-08 11:31 |
|---|---|
| Airport | Juanda International Airport (WARR) |
| Time | Latitude | Longitude | Altitude | Speed | Heading |
|---|---|---|---|---|---|
| 2026-05-08 09:43 | -5.08130 | 119.54740 | 40 ft | 0 kts | 119° |
| 2026-05-08 10:04 | -5.08118 | 119.54719 | 40 ft | 4 kts | 120° |
| 2026-05-08 10:04 | -5.08106 | 119.54698 | 37 ft | 4 kts | 127° |
| 2026-05-08 10:04 | -5.08088 | 119.54686 | 40 ft | 4 kts | 183° |
| 2026-05-08 10:05 | -5.08065 | 119.54693 | 38 ft | 3 kts | 210° |
| 2026-05-08 10:05 | -5.08059 | 119.54696 | 39 ft | 0 kts | 210° |
| 2026-05-08 10:08 | -5.08081 | 119.54683 | 40 ft | 10 kts | 210° |
| 2026-05-08 10:08 | -5.08181 | 119.54625 | 40 ft | 22 kts | 210° |
| 2026-05-08 10:08 | -5.08289 | 119.54562 | 40 ft | 19 kts | 210° |
| 2026-05-08 10:08 | -5.08410 | 119.54491 | 40 ft | 15 kts | 210° |
| 2026-05-08 10:09 | -5.08513 | 119.54442 | 40 ft | 10 kts | 176° |
| 2026-05-08 10:09 | -5.08554 | 119.54498 | 41 ft | 12 kts | 118° |
| 2026-05-08 10:09 | -5.08616 | 119.54547 | 41 ft | 13 kts | 197° |
| 2026-05-08 10:09 | -5.08706 | 119.54503 | 41 ft | 16 kts | 212° |
| 2026-05-08 10:10 | -5.08807 | 119.54444 | 40 ft | 18 kts | 210° |
| 2026-05-08 10:10 | -5.08924 | 119.54376 | 41 ft | 21 kts | 210° |
| 2026-05-08 10:10 | -5.09046 | 119.54302 | 40 ft | 21 kts | 216° |
| 2026-05-08 10:10 | -5.09175 | 119.54310 | 41 ft | 22 kts | 116° |
| 2026-05-08 10:11 | -5.09213 | 119.54394 | 40 ft | 6 kts | 92° |
| 2026-05-08 10:11 | -5.09180 | 119.54432 | 41 ft | 9 kts | 33° |
| 2026-05-08 10:11 | -5.09118 | 119.54469 | 42 ft | 14 kts | 29° |
| 2026-05-08 10:11 | -5.08764 | 119.54673 | 43 ft | 106 kts | 30° |
| 2026-05-08 10:12 | -5.07891 | 119.55173 | 68 ft | 174 kts | 30° |
| 2026-05-08 10:12 | -5.06834 | 119.55781 | 951 ft | 181 kts | 31° |
| 2026-05-08 10:12 | -5.05720 | 119.56362 | 1962 ft | 179 kts | 15° |
| 2026-05-08 10:12 | -5.04397 | 119.56228 | 2551 ft | 210 kts | 341° |
| 2026-05-08 10:13 | -5.02924 | 119.55831 | 3013 ft | 234 kts | 355° |
| 2026-05-08 10:13 | -5.01292 | 119.55260 | 3310 ft | 269 kts | 323° |
| 2026-05-08 10:13 | -5.00200 | 119.53696 | 4075 ft | 286 kts | 287° |
| 2026-05-08 10:13 | -5.00029 | 119.51714 | 5212 ft | 287 kts | 268° |
| 2026-05-08 10:14 | -5.00103 | 119.49703 | 6314 ft | 291 kts | 267° |
| 2026-05-08 10:14 | -5.00150 | 119.47654 | 7319 ft | 296 kts | 269° |
| 2026-05-08 10:14 | -5.00138 | 119.45586 | 8392 ft | 298 kts | 271° |
| 2026-05-08 10:14 | -5.00070 | 119.43499 | 9445 ft | 302 kts | 272° |
| 2026-05-08 10:15 | -4.99959 | 119.41412 | 10370 ft | 307 kts | 274° |
| 2026-05-08 10:15 | -4.99809 | 119.39167 | 10793 ft | 334 kts | 274° |
| 2026-05-08 10:15 | -4.99622 | 119.36750 | 11077 ft | 358 kts | 275° |
| 2026-05-08 10:15 | -4.99412 | 119.34260 | 11741 ft | 366 kts | 275° |
| 2026-05-08 10:16 | -4.99181 | 119.31666 | 12596 ft | 370 kts | 275° |
| 2026-05-08 10:16 | -4.98949 | 119.29129 | 13344 ft | 373 kts | 275° |
| 2026-05-08 10:16 | -4.98708 | 119.26537 | 13719 ft | 376 kts | 275° |
| 2026-05-08 10:16 | -4.98463 | 119.23926 | 13794 ft | 375 kts | 275° |
| 2026-05-08 10:17 | -4.98218 | 119.21315 | 13809 ft | 378 kts | 275° |
| 2026-05-08 10:17 | -4.97970 | 119.18684 | 13816 ft | 379 kts | 275° |
| 2026-05-08 10:17 | -4.97722 | 119.16054 | 13822 ft | 380 kts | 275° |
| 2026-05-08 10:17 | -4.97472 | 119.13409 | 13823 ft | 381 kts | 275° |
| 2026-05-08 10:18 | -4.97223 | 119.10764 | 13819 ft | 381 kts | 275° |
| 2026-05-08 10:18 | -4.96974 | 119.08123 | 13816 ft | 380 kts | 275° |
| 2026-05-08 10:18 | -4.96725 | 119.05492 | 13820 ft | 378 kts | 275° |
| 2026-05-08 10:18 | -4.96478 | 119.02871 | 13817 ft | 377 kts | 275° |
| 2026-05-08 10:19 | -4.96314 | 119.01132 | 13820 ft | 379 kts | 275° |
| 2026-05-08 10:19 | -4.96065 | 118.98499 | 13822 ft | 380 kts | 275° |
| 2026-05-08 10:19 | -4.95732 | 118.94981 | 13818 ft | 377 kts | 275° |
| 2026-05-08 10:20 | -4.95321 | 118.90635 | 13824 ft | 379 kts | 275° |
| 2026-05-08 10:20 | -4.95072 | 118.88001 | 13830 ft | 380 kts | 275° |
| 2026-05-08 10:20 | -4.94823 | 118.85360 | 13827 ft | 381 kts | 275° |
| 2026-05-08 10:20 | -4.94572 | 118.82713 | 13823 ft | 381 kts | 275° |
| 2026-05-08 10:21 | -4.94321 | 118.80064 | 13901 ft | 384 kts | 275° |
| 2026-05-08 10:21 | -4.94088 | 118.77395 | 14654 ft | 382 kts | 271° |
| 2026-05-08 10:21 | -4.94369 | 118.74779 | 15580 ft | 378 kts | 255° |
| 2026-05-08 10:21 | -4.95355 | 118.72324 | 16190 ft | 383 kts | 238° |
| 2026-05-08 10:22 | -4.96933 | 118.70161 | 16859 ft | 386 kts | 231° |
| 2026-05-08 10:22 | -4.98633 | 118.68056 | 17564 ft | 389 kts | 230° |
| 2026-05-08 10:22 | -5.00356 | 118.65949 | 18216 ft | 393 kts | 230° |
| 2026-05-08 10:22 | -5.02091 | 118.63817 | 18759 ft | 397 kts | 230° |
| 2026-05-08 10:23 | -5.03832 | 118.61660 | 19307 ft | 400 kts | 231° |
| 2026-05-08 10:23 | -5.05582 | 118.59476 | 19849 ft | 404 kts | 231° |
| 2026-05-08 10:23 | -5.07347 | 118.57261 | 20364 ft | 408 kts | 231° |
| 2026-05-08 10:23 | -5.09120 | 118.55030 | 20879 ft | 411 kts | 231° |
| 2026-05-08 10:24 | -5.10906 | 118.52779 | 21386 ft | 414 kts | 231° |
| 2026-05-08 10:24 | -5.12709 | 118.50507 | 21886 ft | 418 kts | 231° |
| 2026-05-08 10:24 | -5.14527 | 118.48216 | 22362 ft | 421 kts | 231° |
| 2026-05-08 10:24 | -5.16359 | 118.45906 | 22814 ft | 425 kts | 231° |
| 2026-05-08 10:25 | -5.18210 | 118.43573 | 23249 ft | 429 kts | 231° |
| 2026-05-08 10:25 | -5.20072 | 118.41227 | 23647 ft | 432 kts | 231° |
| 2026-05-08 10:25 | -5.21946 | 118.38866 | 24041 ft | 434 kts | 231° |
| 2026-05-08 10:25 | -5.23866 | 118.36520 | 24437 ft | 435 kts | 227° |
| 2026-05-08 10:26 | -5.26071 | 118.34442 | 24820 ft | 437 kts | 218° |
| 2026-05-08 10:26 | -5.28509 | 118.32607 | 25191 ft | 439 kts | 216° |
| 2026-05-08 10:26 | -5.30989 | 118.30807 | 25546 ft | 441 kts | 216° |
| 2026-05-08 10:26 | -5.33484 | 118.29003 | 25904 ft | 443 kts | 216° |
| 2026-05-08 10:27 | -5.35977 | 118.27182 | 26265 ft | 445 kts | 216° |
| 2026-05-08 10:27 | -5.38471 | 118.25343 | 26606 ft | 447 kts | 216° |
| 2026-05-08 10:27 | -5.40975 | 118.23483 | 26951 ft | 448 kts | 217° |
| 2026-05-08 10:27 | -5.43490 | 118.21608 | 27274 ft | 450 kts | 217° |
| 2026-05-08 10:28 | -5.46007 | 118.19729 | 27594 ft | 452 kts | 217° |
| 2026-05-08 10:28 | -5.48531 | 118.17846 | 27914 ft | 454 kts | 217° |
| 2026-05-08 10:28 | -5.51077 | 118.15948 | 28220 ft | 456 kts | 217° |
| 2026-05-08 10:28 | -5.53566 | 118.13970 | 28498 ft | 458 kts | 223° |
| 2026-05-08 10:29 | -5.55684 | 118.11575 | 28774 ft | 460 kts | 233° |
| 2026-05-08 10:29 | -5.57388 | 118.08854 | 29073 ft | 462 kts | 242° |
| 2026-05-08 10:29 | -5.58595 | 118.05903 | 29372 ft | 464 kts | 250° |
| 2026-05-08 10:29 | -5.59634 | 118.02835 | 29641 ft | 466 kts | 251° |
| 2026-05-08 10:30 | -5.60647 | 117.99739 | 29867 ft | 468 kts | 251° |
| 2026-05-08 10:30 | -5.61663 | 117.96628 | 30078 ft | 470 kts | 251° |
| 2026-05-08 10:30 | -5.62696 | 117.93506 | 30342 ft | 471 kts | 251° |
| 2026-05-08 10:30 | -5.63740 | 117.90392 | 30648 ft | 470 kts | 250° |
| 2026-05-08 10:31 | -5.64791 | 117.87289 | 31002 ft | 469 kts | 250° |
| 2026-05-08 10:31 | -5.65846 | 117.84195 | 31412 ft | 467 kts | 250° |
| 2026-05-08 10:31 | -5.66899 | 117.81114 | 31795 ft | 466 kts | 250° |
| 2026-05-08 10:31 | -5.67952 | 117.78037 | 32163 ft | 466 kts | 250° |
| 2026-05-08 10:32 | -5.69003 | 117.74964 | 32579 ft | 465 kts | 251° |
| 2026-05-08 10:32 | -5.70051 | 117.71896 | 32999 ft | 464 kts | 251° |
| 2026-05-08 10:32 | -5.71098 | 117.68828 | 33435 ft | 464 kts | 251° |
| 2026-05-08 10:32 | -5.72141 | 117.65774 | 33809 ft | 462 kts | 251° |
| 2026-05-08 10:33 | -5.73187 | 117.62707 | 33824 ft | 465 kts | 251° |
| 2026-05-08 10:33 | -5.75281 | 117.56569 | 33844 ft | 465 kts | 251° |
| 2026-05-08 10:34 | -5.77372 | 117.50436 | 33846 ft | 464 kts | 251° |
| 2026-05-08 10:34 | -5.79462 | 117.44303 | 33846 ft | 464 kts | 251° |
| 2026-05-08 10:35 | -5.81547 | 117.38181 | 33845 ft | 463 kts | 251° |
| 2026-05-08 10:35 | -5.83633 | 117.32054 | 33844 ft | 464 kts | 251° |
| 2026-05-08 10:36 | -5.85718 | 117.25928 | 33843 ft | 464 kts | 251° |
| 2026-05-08 10:36 | -5.87806 | 117.19794 | 33843 ft | 464 kts | 251° |
| 2026-05-08 10:37 | -5.89904 | 117.13655 | 33844 ft | 465 kts | 251° |
| 2026-05-08 10:37 | -5.91995 | 117.07554 | 33843 ft | 466 kts | 251° |
| 2026-05-08 10:38 | -5.94101 | 117.01400 | 33844 ft | 466 kts | 251° |
| 2026-05-08 10:38 | -5.96208 | 116.95240 | 33845 ft | 466 kts | 251° |
| 2026-05-08 10:39 | -5.98314 | 116.89076 | 33846 ft | 467 kts | 251° |
| 2026-05-08 10:39 | -6.00420 | 116.82909 | 33843 ft | 467 kts | 251° |
| 2026-05-08 10:40 | -6.02525 | 116.76744 | 33842 ft | 467 kts | 251° |
| 2026-05-08 10:40 | -6.04630 | 116.70576 | 33844 ft | 466 kts | 251° |
| 2026-05-08 10:41 | -6.06732 | 116.64417 | 33847 ft | 466 kts | 251° |
| 2026-05-08 10:41 | -6.08833 | 116.58253 | 33845 ft | 466 kts | 251° |
| 2026-05-08 10:42 | -6.10933 | 116.52093 | 33846 ft | 466 kts | 251° |
| 2026-05-08 10:42 | -6.13029 | 116.45941 | 33847 ft | 466 kts | 251° |
| 2026-05-08 10:43 | -6.15126 | 116.39783 | 33848 ft | 465 kts | 251° |
| 2026-05-08 10:43 | -6.17219 | 116.33636 | 33843 ft | 465 kts | 251° |
| 2026-05-08 10:44 | -6.19317 | 116.27491 | 33847 ft | 465 kts | 251° |
| 2026-05-08 10:44 | -6.21404 | 116.21390 | 33845 ft | 465 kts | 251° |
| 2026-05-08 10:45 | -6.23502 | 116.15251 | 33846 ft | 465 kts | 251° |
| 2026-05-08 10:45 | -6.25599 | 116.09109 | 33848 ft | 465 kts | 251° |
| 2026-05-08 10:46 | -6.27695 | 116.02969 | 33847 ft | 465 kts | 251° |
| 2026-05-08 10:46 | -6.29790 | 115.96826 | 33843 ft | 465 kts | 251° |
| 2026-05-08 10:47 | -6.31885 | 115.90682 | 33848 ft | 465 kts | 251° |
| 2026-05-08 10:47 | -6.33979 | 115.84537 | 33846 ft | 465 kts | 251° |
| 2026-05-08 10:48 | -6.36075 | 115.78387 | 33847 ft | 465 kts | 251° |
| 2026-05-08 10:48 | -6.38168 | 115.72240 | 33848 ft | 465 kts | 251° |
| 2026-05-08 10:49 | -6.40261 | 115.66089 | 33849 ft | 465 kts | 251° |
| 2026-05-08 10:49 | -6.42352 | 115.59944 | 33851 ft | 465 kts | 251° |
| 2026-05-08 10:50 | -6.44442 | 115.53798 | 33849 ft | 465 kts | 251° |
| 2026-05-08 10:50 | -6.46533 | 115.47646 | 33849 ft | 465 kts | 251° |
| 2026-05-08 10:51 | -6.48619 | 115.41507 | 33849 ft | 464 kts | 251° |
| 2026-05-08 10:51 | -6.50710 | 115.35352 | 33849 ft | 464 kts | 251° |
| 2026-05-08 10:52 | -6.52781 | 115.29250 | 33850 ft | 464 kts | 251° |
| 2026-05-08 10:52 | -6.54866 | 115.23106 | 33847 ft | 464 kts | 251° |
| 2026-05-08 10:53 | -6.56483 | 115.16845 | 33851 ft | 464 kts | 263° |
| 2026-05-08 10:53 | -6.56408 | 115.10371 | 33854 ft | 464 kts | 274° |
| 2026-05-08 10:54 | -6.55851 | 115.03901 | 33843 ft | 465 kts | 275° |
| 2026-05-08 10:54 | -6.55305 | 114.97420 | 33844 ft | 465 kts | 274° |
| 2026-05-08 10:55 | -6.54798 | 114.90939 | 33850 ft | 465 kts | 274° |
| 2026-05-08 10:55 | -6.54307 | 114.84449 | 33847 ft | 465 kts | 274° |
| 2026-05-08 10:56 | -6.53817 | 114.77960 | 33848 ft | 465 kts | 274° |
| 2026-05-08 10:56 | -6.53325 | 114.71476 | 33846 ft | 465 kts | 274° |
| 2026-05-08 10:57 | -6.52831 | 114.64990 | 33845 ft | 465 kts | 274° |
| 2026-05-08 10:57 | -6.52089 | 114.55267 | 33843 ft | 465 kts | 274° |
| 2026-05-08 10:58 | -6.51594 | 114.48793 | 33843 ft | 465 kts | 274° |
| 2026-05-08 10:58 | -6.51097 | 114.42314 | 33843 ft | 464 kts | 274° |
| 2026-05-08 10:59 | -6.50601 | 114.35841 | 33842 ft | 464 kts | 274° |
| 2026-05-08 10:59 | -6.50103 | 114.29372 | 33842 ft | 464 kts | 274° |
| 2026-05-08 11:00 | -6.49613 | 114.22944 | 33838 ft | 464 kts | 274° |
| 2026-05-08 11:00 | -6.49113 | 114.16479 | 33846 ft | 464 kts | 274° |
| 2026-05-08 11:01 | -6.48611 | 114.10017 | 33841 ft | 464 kts | 274° |
| 2026-05-08 11:01 | -6.48111 | 114.03554 | 33839 ft | 464 kts | 274° |
| 2026-05-08 11:02 | -6.47359 | 113.93859 | 33838 ft | 463 kts | 274° |
| 2026-05-08 11:03 | -6.46858 | 113.87403 | 33837 ft | 463 kts | 274° |
| 2026-05-08 11:03 | -6.46758 | 113.80947 | 33833 ft | 462 kts | 259° |
| 2026-05-08 11:03 | -6.47438 | 113.77784 | 33581 ft | 466 kts | 257° |
| 2026-05-08 11:04 | -6.48202 | 113.74603 | 32984 ft | 465 kts | 256° |
| 2026-05-08 11:04 | -6.48971 | 113.71474 | 32408 ft | 457 kts | 256° |
| 2026-05-08 11:04 | -6.49718 | 113.68387 | 31859 ft | 450 kts | 256° |
| 2026-05-08 11:04 | -6.50435 | 113.65351 | 31321 ft | 443 kts | 256° |
| 2026-05-08 11:05 | -6.51127 | 113.62352 | 30791 ft | 437 kts | 256° |
| 2026-05-08 11:05 | -6.51800 | 113.59390 | 30245 ft | 433 kts | 256° |
| 2026-05-08 11:05 | -6.52464 | 113.56454 | 29681 ft | 428 kts | 256° |
| 2026-05-08 11:05 | -6.53117 | 113.53555 | 29110 ft | 422 kts | 256° |
| 2026-05-08 11:06 | -6.53760 | 113.50699 | 28570 ft | 416 kts | 256° |
| 2026-05-08 11:06 | -6.54397 | 113.47874 | 28060 ft | 411 kts | 256° |
| 2026-05-08 11:06 | -6.55025 | 113.45092 | 27550 ft | 406 kts | 256° |
| 2026-05-08 11:06 | -6.55644 | 113.42345 | 27042 ft | 401 kts | 256° |
| 2026-05-08 11:07 | -6.56257 | 113.39626 | 26560 ft | 397 kts | 256° |
| 2026-05-08 11:07 | -6.56865 | 113.36933 | 26066 ft | 394 kts | 257° |
| 2026-05-08 11:07 | -6.57266 | 113.35155 | 25732 ft | 394 kts | 257° |
| 2026-05-08 11:07 | -6.58065 | 113.31608 | 25081 ft | 391 kts | 257° |
| 2026-05-08 11:08 | -6.58662 | 113.28956 | 24596 ft | 388 kts | 257° |
| 2026-05-08 11:08 | -6.59258 | 113.26313 | 24107 ft | 386 kts | 257° |
| 2026-05-08 11:08 | -6.59848 | 113.23690 | 23622 ft | 384 kts | 257° |
| 2026-05-08 11:08 | -6.60244 | 113.21929 | 23281 ft | 382 kts | 257° |
| 2026-05-08 11:09 | -6.61019 | 113.18489 | 22582 ft | 378 kts | 257° |
| 2026-05-08 11:09 | -6.61411 | 113.16750 | 22193 ft | 377 kts | 257° |
| 2026-05-08 11:09 | -6.61991 | 113.14183 | 21684 ft | 374 kts | 257° |
| 2026-05-08 11:09 | -6.62564 | 113.11646 | 21216 ft | 370 kts | 257° |
| 2026-05-08 11:10 | -6.63125 | 113.09166 | 20764 ft | 367 kts | 257° |
| 2026-05-08 11:10 | -6.63694 | 113.06646 | 20307 ft | 363 kts | 257° |
| 2026-05-08 11:10 | -6.64251 | 113.04177 | 19861 ft | 360 kts | 256° |
| 2026-05-08 11:10 | -6.64796 | 113.01763 | 19410 ft | 358 kts | 257° |
| 2026-05-08 11:11 | -6.65352 | 112.99301 | 18956 ft | 355 kts | 256° |
| 2026-05-08 11:11 | -6.65897 | 112.96885 | 18508 ft | 353 kts | 256° |
| 2026-05-08 11:11 | -6.66437 | 112.94487 | 18066 ft | 351 kts | 256° |
| 2026-05-08 11:11 | -6.66967 | 112.92136 | 17582 ft | 348 kts | 256° |
| 2026-05-08 11:12 | -6.67501 | 112.89769 | 17132 ft | 345 kts | 256° |
| 2026-05-08 11:12 | -6.68029 | 112.87425 | 16695 ft | 343 kts | 256° |
| 2026-05-08 11:12 | -6.68556 | 112.85086 | 16268 ft | 344 kts | 256° |
| 2026-05-08 11:12 | -6.69088 | 112.82727 | 15835 ft | 349 kts | 256° |
| 2026-05-08 11:13 | -6.69630 | 112.80323 | 15387 ft | 355 kts | 257° |
| 2026-05-08 11:13 | -6.70173 | 112.77909 | 14946 ft | 352 kts | 257° |
| 2026-05-08 11:13 | -6.70709 | 112.75520 | 14495 ft | 348 kts | 257° |
| 2026-05-08 11:13 | -6.71239 | 112.73158 | 14062 ft | 344 kts | 257° |
| 2026-05-08 11:14 | -6.71764 | 112.70823 | 13616 ft | 341 kts | 257° |
| 2026-05-08 11:14 | -6.72284 | 112.68503 | 13147 ft | 338 kts | 257° |
| 2026-05-08 11:14 | -6.72800 | 112.66203 | 12611 ft | 337 kts | 257° |
| 2026-05-08 11:14 | -6.73312 | 112.63919 | 12170 ft | 333 kts | 257° |
| 2026-05-08 11:15 | -6.73818 | 112.61662 | 11766 ft | 329 kts | 257° |
| 2026-05-08 11:15 | -6.74315 | 112.59445 | 11491 ft | 321 kts | 257° |
| 2026-05-08 11:15 | -6.74797 | 112.57293 | 11382 ft | 311 kts | 257° |
| 2026-05-08 11:15 | -6.75270 | 112.55182 | 11264 ft | 307 kts | 257° |
| 2026-05-08 11:16 | -6.75734 | 112.53113 | 11130 ft | 298 kts | 256° |
| 2026-05-08 11:16 | -6.76189 | 112.51113 | 11018 ft | 287 kts | 253° |
| 2026-05-08 11:16 | -6.77061 | 112.49402 | 10883 ft | 275 kts | 227° |
| 2026-05-08 11:16 | -6.78538 | 112.48272 | 10685 ft | 265 kts | 202° |
| 2026-05-08 11:17 | -6.80289 | 112.47786 | 10420 ft | 259 kts | 182° |
| 2026-05-08 11:17 | -6.82073 | 112.47861 | 10149 ft | 256 kts | 172° |
| 2026-05-08 11:17 | -6.83834 | 112.48074 | 9864 ft | 255 kts | 171° |
| 2026-05-08 11:17 | -6.85593 | 112.48300 | 9554 ft | 255 kts | 171° |
| 2026-05-08 11:18 | -6.87350 | 112.48522 | 9232 ft | 254 kts | 171° |
| 2026-05-08 11:18 | -6.89102 | 112.48739 | 8948 ft | 253 kts | 171° |
| 2026-05-08 11:18 | -6.90844 | 112.48949 | 8661 ft | 252 kts | 171° |
| 2026-05-08 11:18 | -6.92580 | 112.49156 | 8360 ft | 250 kts | 171° |
| 2026-05-08 11:19 | -6.94306 | 112.49359 | 8080 ft | 249 kts | 171° |
| 2026-05-08 11:19 | -6.96020 | 112.49561 | 7796 ft | 247 kts | 171° |
| 2026-05-08 11:19 | -6.97709 | 112.49759 | 7523 ft | 242 kts | 171° |
| 2026-05-08 11:19 | -6.99370 | 112.49949 | 7342 ft | 242 kts | 172° |
| 2026-05-08 11:20 | -7.01078 | 112.50144 | 7162 ft | 253 kts | 172° |
| 2026-05-08 11:20 | -7.02839 | 112.50344 | 6968 ft | 256 kts | 172° |
| 2026-05-08 11:20 | -7.04617 | 112.50545 | 6764 ft | 257 kts | 172° |
| 2026-05-08 11:20 | -7.06382 | 112.50744 | 6562 ft | 254 kts | 172° |
| 2026-05-08 11:21 | -7.08132 | 112.50942 | 6366 ft | 252 kts | 172° |
| 2026-05-08 11:21 | -7.09873 | 112.51139 | 6172 ft | 252 kts | 172° |
| 2026-05-08 11:21 | -7.11616 | 112.51337 | 5968 ft | 252 kts | 172° |
| 2026-05-08 11:21 | -7.13354 | 112.51534 | 5765 ft | 252 kts | 172° |
| 2026-05-08 11:22 | -7.15092 | 112.51731 | 5567 ft | 251 kts | 172° |
| 2026-05-08 11:22 | -7.16825 | 112.51928 | 5379 ft | 250 kts | 172° |
| 2026-05-08 11:22 | -7.18555 | 112.52124 | 5178 ft | 250 kts | 172° |
| 2026-05-08 11:22 | -7.20284 | 112.52320 | 4999 ft | 250 kts | 172° |
| 2026-05-08 11:23 | -7.22012 | 112.52516 | 4801 ft | 249 kts | 172° |
| 2026-05-08 11:23 | -7.23688 | 112.52706 | 4648 ft | 234 kts | 172° |
| 2026-05-08 11:23 | -7.25251 | 112.52883 | 4447 ft | 218 kts | 172° |
| 2026-05-08 11:23 | -7.26699 | 112.53047 | 4276 ft | 200 kts | 172° |
| 2026-05-08 11:24 | -7.28011 | 112.53195 | 4099 ft | 186 kts | 172° |
| 2026-05-08 11:24 | -7.29283 | 112.53340 | 3980 ft | 182 kts | 172° |
| 2026-05-08 11:24 | -7.30540 | 112.53483 | 3835 ft | 182 kts | 172° |
| 2026-05-08 11:24 | -7.31805 | 112.53627 | 3723 ft | 184 kts | 172° |
| 2026-05-08 11:25 | -7.33036 | 112.53928 | 3559 ft | 183 kts | 145° |
| 2026-05-08 11:25 | -7.33727 | 112.54953 | 3455 ft | 178 kts | 105° |
| 2026-05-08 11:25 | -7.34068 | 112.56145 | 3304 ft | 178 kts | 107° |
| 2026-05-08 11:25 | -7.34425 | 112.57340 | 3170 ft | 178 kts | 104° |
| 2026-05-08 11:26 | -7.34709 | 112.58577 | 3072 ft | 181 kts | 101° |
| 2026-05-08 11:26 | -7.34935 | 112.59807 | 3023 ft | 177 kts | 100° |
| 2026-05-08 11:26 | -7.35141 | 112.61042 | 2876 ft | 180 kts | 99° |
| 2026-05-08 11:26 | -7.35335 | 112.62235 | 2819 ft | 173 kts | 99° |
| 2026-05-08 11:27 | -7.35517 | 112.63368 | 2627 ft | 157 kts | 99° |
| 2026-05-08 11:27 | -7.35684 | 112.64409 | 2439 ft | 148 kts | 99° |
| 2026-05-08 11:27 | -7.35847 | 112.65422 | 2257 ft | 147 kts | 99° |
| 2026-05-08 11:27 | -7.36010 | 112.66433 | 2071 ft | 146 kts | 99° |
| 2026-05-08 11:28 | -7.36171 | 112.67435 | 1896 ft | 144 kts | 99° |
| 2026-05-08 11:28 | -7.36330 | 112.68426 | 1703 ft | 143 kts | 99° |
| 2026-05-08 11:28 | -7.36491 | 112.69423 | 1521 ft | 145 kts | 99° |
| 2026-05-08 11:28 | -7.36650 | 112.70411 | 1331 ft | 143 kts | 99° |
| 2026-05-08 11:29 | -7.36811 | 112.71404 | 1167 ft | 144 kts | 99° |
| 2026-05-08 11:29 | -7.36970 | 112.72403 | 961 ft | 144 kts | 99° |
| 2026-05-08 11:29 | -7.37129 | 112.73385 | 803 ft | 141 kts | 98° |
| 2026-05-08 11:29 | -7.37289 | 112.74383 | 627 ft | 147 kts | 99° |
| 2026-05-08 11:30 | -7.37450 | 112.75379 | 431 ft | 141 kts | 98° |
| 2026-05-08 11:30 | -7.37598 | 112.76349 | 252 ft | 138 kts | 97° |
| 2026-05-08 11:30 | -7.37759 | 112.77317 | 71 ft | 141 kts | 99° |
| 2026-05-08 11:30 | -7.37909 | 112.78237 | 10 ft | 115 kts | 100° |
| 2026-05-08 11:31 | -7.38000 | 112.78819 | 9 ft | 53 kts | 99° |
| 2026-05-08 11:31 | -7.38050 | 112.79101 | 10 ft | 38 kts | 96° |
| 2026-05-08 11:31 | -7.38008 | 112.79335 | 8 ft | 28 kts | 69° |
| 2026-05-08 11:31 | -7.37909 | 112.79416 | 8 ft | 19 kts | 7° |
| 2026-05-08 11:32 | -7.37777 | 112.79437 | 8 ft | 15 kts | 10° |
| 2026-05-08 11:32 | -7.37663 | 112.79458 | 8 ft | 15 kts | 10° |
| 2026-05-08 11:32 | -7.37599 | 112.79468 | 8 ft | 6 kts | 9° |
| 2026-05-08 11:32 | -7.37588 | 112.79470 | 8 ft | 0 kts | 9° |
| 2026-05-08 11:33 | -7.37597 | 112.79468 | 8 ft | 2 kts | 9° |
| 2026-05-08 11:33 | -7.37589 | 112.79469 | 8 ft | 0 kts | 9° |